sensor_id;sensor_type;location;lat;lon;timestamp;pressure;altitude;pressure_sealevel;temperature
80962;BMP280;70424;55.154;14.722;2024-02-04T00:01:20;100798.72;;;4.97
80962;BMP280;70424;55.154;14.722;2024-02-04T00:03:46;100824.34;;;5.11
80962;BMP280;70424;55.154;14.722;2024-02-04T00:06:11;100810.97;;;4.98
80962;BMP280;70424;55.154;14.722;2024-02-04T00:08:37;100801.22;;;4.95
80962;BMP280;70424;55.154;14.722;2024-02-04T00:11:02;100827.06;;;5.11
80962;BMP280;70424;55.154;14.722;2024-02-04T00:13:30;100817.50;;;5.02
80962;BMP280;70424;55.154;14.722;2024-02-04T00:15:55;100814.25;;;4.96
80962;BMP280;70424;55.154;14.722;2024-02-04T00:18:24;100821.44;;;5.01
80962;BMP280;70424;55.154;14.722;2024-02-04T00:20:49;100832.50;;;5.03
80962;BMP280;70424;55.154;14.722;2024-02-04T00:23:14;100818.94;;;5.03
80962;BMP280;70424;55.154;14.722;2024-02-04T00:25:40;100791.81;;;4.81
80962;BMP280;70424;55.154;14.722;2024-02-04T00:28:06;100791.69;;;4.94
80962;BMP280;70424;55.154;14.722;2024-02-04T00:30:32;100801.41;;;4.97
80962;BMP280;70424;55.154;14.722;2024-02-04T00:32:57;100802.16;;;5.05
80962;BMP280;70424;55.154;14.722;2024-02-04T00:35:28;100803.25;;;5.02
80962;BMP280;70424;55.154;14.722;2024-02-04T00:37:53;100788.97;;;4.94
80962;BMP280;70424;55.154;14.722;2024-02-04T00:40:19;100772.72;;;4.94
80962;BMP280;70424;55.154;14.722;2024-02-04T00:42:44;100781.53;;;4.94
80962;BMP280;70424;55.154;14.722;2024-02-04T00:45:10;100772.16;;;4.95
80962;BMP280;70424;55.154;14.722;2024-02-04T00:47:36;100765.69;;;4.91
80962;BMP280;70424;55.154;14.722;2024-02-04T00:50:01;100763.31;;;4.87
80962;BMP280;70424;55.154;14.722;2024-02-04T00:52:27;100761.50;;;4.97
80962;BMP280;70424;55.154;14.722;2024-02-04T00:54:52;100746.53;;;4.89
80962;BMP280;70424;55.154;14.722;2024-02-04T00:57:17;100745.25;;;4.82
80962;BMP280;70424;55.154;14.722;2024-02-04T00:59:43;100774.69;;;5.01
80962;BMP280;70424;55.154;14.722;2024-02-04T01:02:08;100762.41;;;4.92
80962;BMP280;70424;55.154;14.722;2024-02-04T01:04:34;100768.38;;;4.91
80962;BMP280;70424;55.154;14.722;2024-02-04T01:06:59;100780.81;;;5.01
80962;BMP280;70424;55.154;14.722;2024-02-04T01:09:24;100767.13;;;4.92
80962;BMP280;70424;55.154;14.722;2024-02-04T01:11:50;100763.69;;;4.91
80962;BMP280;70424;55.154;14.722;2024-02-04T01:14:16;100773.06;;;4.98
80962;BMP280;70424;55.154;14.722;2024-02-04T01:16:41;100762.25;;;4.90
80962;BMP280;70424;55.154;14.722;2024-02-04T01:19:07;100763.69;;;4.91
80962;BMP280;70424;55.154;14.722;2024-02-04T01:21:32;100761.31;;;4.88
80962;BMP280;70424;55.154;14.722;2024-02-04T01:23:57;100772.00;;;4.93
80962;BMP280;70424;55.154;14.722;2024-02-04T01:26:23;100766.03;;;5.02
80962;BMP280;70424;55.154;14.722;2024-02-04T01:28:49;100737.50;;;4.86
80962;BMP280;70424;55.154;14.722;2024-02-04T01:31:15;100755.56;;;4.91
80962;BMP280;70424;55.154;14.722;2024-02-04T01:33:40;100759.53;;;4.90
80962;BMP280;70424;55.154;14.722;2024-02-04T01:36:06;100744.00;;;4.83
80962;BMP280;70424;55.154;14.722;2024-02-04T01:38:31;100759.34;;;4.96
80962;BMP280;70424;55.154;14.722;2024-02-04T01:40:57;100747.44;;;4.91
80962;BMP280;70424;55.154;14.722;2024-02-04T01:43:23;100738.75;;;4.93
80962;BMP280;70424;55.154;14.722;2024-02-04T01:45:50;100734.63;;;4.92
80962;BMP280;70424;55.154;14.722;2024-02-04T01:48:16;100730.06;;;4.94
80962;BMP280;70424;55.154;14.722;2024-02-04T01:50:43;100739.50;;;4.93
80962;BMP280;70424;55.154;14.722;2024-02-04T01:53:09;100719.63;;;4.83
80962;BMP280;70424;55.154;14.722;2024-02-04T01:55:35;100708.78;;;4.83
80962;BMP280;70424;55.154;14.722;2024-02-04T01:58:02;100729.03;;;4.90
80962;BMP280;70424;55.154;14.722;2024-02-04T02:00:28;100723.22;;;4.86
80962;BMP280;70424;55.154;14.722;2024-02-04T02:02:55;100737.69;;;4.96
80962;BMP280;70424;55.154;14.722;2024-02-04T02:05:21;100743.09;;;4.96
80962;BMP280;70424;55.154;14.722;2024-02-04T02:07:47;100696.53;;;4.74
80962;BMP280;70424;55.154;14.722;2024-02-04T02:10:16;100713.50;;;4.83
80962;BMP280;70424;55.154;14.722;2024-02-04T02:12:58;100726.50;;;4.92
80962;BMP280;70424;55.154;14.722;2024-02-04T02:15:32;100705.38;;;4.90
80962;BMP280;70424;55.154;14.722;2024-02-04T02:18:04;100720.16;;;4.97
80962;BMP280;70424;55.154;14.722;2024-02-04T02:20:55;100717.44;;;4.97
80962;BMP280;70424;55.154;14.722;2024-02-04T02:23:40;100711.09;;;4.94
80962;BMP280;70424;55.154;14.722;2024-02-04T02:26:08;100707.53;;;4.84
80962;BMP280;70424;55.154;14.722;2024-02-04T02:28:34;100714.75;;;4.97
80962;BMP280;70424;55.154;14.722;2024-02-04T02:31:00;100696.88;;;4.86
80962;BMP280;70424;55.154;14.722;2024-02-04T02:33:25;100691.28;;;4.84
80962;BMP280;70424;55.154;14.722;2024-02-04T02:35:53;100684.59;;;4.77
80962;BMP280;70424;55.154;14.722;2024-02-04T02:38:39;100714.53;;;4.95
80962;BMP280;70424;55.154;14.722;2024-02-04T02:41:08;100719.09;;;4.85
80962;BMP280;70424;55.154;14.722;2024-02-04T02:43:35;100715.66;;;4.92
80962;BMP280;70424;55.154;14.722;2024-02-04T02:46:03;100704.81;;;4.84
80962;BMP280;70424;55.154;14.722;2024-02-04T02:48:28;100702.66;;;4.75
80962;BMP280;70424;55.154;14.722;2024-02-04T02:50:54;100718.38;;;4.92
80962;BMP280;70424;55.154;14.722;2024-02-04T02:53:19;100695.97;;;4.84
80962;BMP280;70424;55.154;14.722;2024-02-04T02:55:45;100710.41;;;4.86
80962;BMP280;70424;55.154;14.722;2024-02-04T02:58:12;100693.25;;;4.76
80962;BMP280;70424;55.154;14.722;2024-02-04T03:00:37;100693.25;;;4.76
80962;BMP280;70424;55.154;14.722;2024-02-04T03:03:03;100693.44;;;4.78
80962;BMP280;70424;55.154;14.722;2024-02-04T03:05:29;100694.34;;;4.81
80962;BMP280;70424;55.154;14.722;2024-02-04T03:07:54;100667.66;;;4.69
80962;BMP280;70424;55.154;14.722;2024-02-04T03:10:20;100680.06;;;4.80
80962;BMP280;70424;55.154;14.722;2024-02-04T03:12:45;100688.56;;;4.84
80962;BMP280;70424;55.154;14.722;2024-02-04T03:15:10;100686.03;;;4.86
80962;BMP280;70424;55.154;14.722;2024-02-04T03:17:36;100675.03;;;4.76
80962;BMP280;70424;55.154;14.722;2024-02-04T03:20:01;100672.88;;;4.83
80962;BMP280;70424;55.154;14.722;2024-02-04T03:22:27;100687.84;;;4.91
80962;BMP280;70424;55.154;14.722;2024-02-04T03:24:52;100670.50;;;4.87
80962;BMP280;70424;55.154;14.722;2024-02-04T03:27:18;100672.88;;;4.90
80962;BMP280;70424;55.154;14.722;2024-02-04T03:29:43;100662.22;;;4.85
80962;BMP280;70424;55.154;14.722;2024-02-04T03:32:10;100670.69;;;4.96
80962;BMP280;70424;55.154;14.722;2024-02-04T03:34:36;100677.91;;;4.94
80962;BMP280;70424;55.154;14.722;2024-02-04T03:37:01;100690.91;;;4.95
80962;BMP280;70424;55.154;14.722;2024-02-04T03:39:27;100645.06;;;4.74
80962;BMP280;70424;55.154;14.722;2024-02-04T03:41:52;100688.19;;;4.95
80962;BMP280;70424;55.154;14.722;2024-02-04T03:44:18;100673.59;;;4.83
80962;BMP280;70424;55.154;14.722;2024-02-04T03:46:46;100671.41;;;4.82
80962;BMP280;70424;55.154;14.722;2024-02-04T03:49:16;100668.34;;;4.77
80962;BMP280;70424;55.154;14.722;2024-02-04T03:51:42;100688.03;;;4.93
80962;BMP280;70424;55.154;14.722;2024-02-04T03:54:07;100671.59;;;4.84
80962;BMP280;70424;55.154;14.722;2024-02-04T03:56:33;100688.56;;;4.92
80962;BMP280;70424;55.154;14.722;2024-02-04T03:58:58;100671.78;;;4.86
80962;BMP280;70424;55.154;14.722;2024-02-04T04:01:23;100671.94;;;4.88
80962;BMP280;70424;55.154;14.722;2024-02-04T04:03:49;100664.91;;;4.85
80962;BMP280;70424;55.154;14.722;2024-02-04T04:06:14;100652.09;;;4.85
80962;BMP280;70424;55.154;14.722;2024-02-04T04:08:40;100671.22;;;5.02
80962;BMP280;70424;55.154;14.722;2024-02-04T04:11:08;100672.66;;;5.03
80962;BMP280;70424;55.154;14.722;2024-02-04T04:13:33;100650.63;;;4.99
80962;BMP280;70424;55.154;14.722;2024-02-04T04:16:00;100659.84;;;5.04
80962;BMP280;70424;55.154;14.722;2024-02-04T04:18:26;100628.09;;;4.89
80962;BMP280;70424;55.154;14.722;2024-02-04T04:20:51;100621.59;;;4.92
80962;BMP280;70424;55.154;14.722;2024-02-04T04:23:16;100634.56;;;4.94
80962;BMP280;70424;55.154;14.722;2024-02-04T04:25:42;100630.94;;;4.99
80962;BMP280;70424;55.154;14.722;2024-02-04T04:28:07;100631.66;;;4.99
80962;BMP280;70424;55.154;14.722;2024-02-04T04:30:32;100625.91;;;4.95
80962;BMP280;70424;55.154;14.722;2024-02-04T04:32:58;100622.63;;;5.04
80962;BMP280;70424;55.154;14.722;2024-02-04T04:35:24;100616.69;;;4.98
80962;BMP280;70424;55.154;14.722;2024-02-04T04:37:49;100600.44;;;4.98
80962;BMP280;70424;55.154;14.722;2024-02-04T04:40:15;100627.28;;;5.12
80962;BMP280;70424;55.154;14.722;2024-02-04T04:42:40;100595.53;;;5.04
80962;BMP280;70424;55.154;14.722;2024-02-04T04:45:06;100607.78;;;5.13
80962;BMP280;70424;55.154;14.722;2024-02-04T04:47:33;100597.72;;;5.06
80962;BMP280;70424;55.154;14.722;2024-02-04T04:49:58;100591.34;;;5.11
80962;BMP280;70424;55.154;14.722;2024-02-04T04:52:24;100577.66;;;5.09
80962;BMP280;70424;55.154;14.722;2024-02-04T04:54:49;100594.06;;;5.11
80962;BMP280;70424;55.154;14.722;2024-02-04T04:57:15;100579.47;;;5.06
80962;BMP280;70424;55.154;14.722;2024-02-04T04:59:40;100590.97;;;5.15
80962;BMP280;70424;55.154;14.722;2024-02-04T05:02:06;100574.75;;;5.07
80962;BMP280;70424;55.154;14.722;2024-02-04T05:04:32;100596.59;;;5.17
80962;BMP280;70424;55.154;14.722;2024-02-04T05:06:57;100578.38;;;5.10
80962;BMP280;70424;55.154;14.722;2024-02-04T05:09:23;100594.03;;;5.19
80962;BMP280;70424;55.154;14.722;2024-02-04T05:11:48;100592.44;;;5.16
80962;BMP280;70424;55.154;14.722;2024-02-04T05:14:13;100553.09;;;5.07
80962;BMP280;70424;55.154;14.722;2024-02-04T05:16:39;100572.00;;;5.15
80962;BMP280;70424;55.154;14.722;2024-02-04T05:19:04;100572.91;;;5.17
80962;BMP280;70424;55.154;14.722;2024-02-04T05:21:30;100574.53;;;5.13
80962;BMP280;70424;55.154;14.722;2024-02-04T05:23:55;100562.66;;;5.08
80962;BMP280;70424;55.154;14.722;2024-02-04T05:26:21;100549.84;;;5.09
80962;BMP280;70424;55.154;14.722;2024-02-04T05:28:46;100555.28;;;5.09
80962;BMP280;70424;55.154;14.722;2024-02-04T05:31:12;100564.97;;;5.19
80962;BMP280;70424;55.154;14.722;2024-02-04T05:33:37;100570.38;;;5.19
80962;BMP280;70424;55.154;14.722;2024-02-04T05:36:03;100570.75;;;5.23
80962;BMP280;70424;55.154;14.722;2024-02-04T05:38:30;100554.66;;;5.18
80962;BMP280;70424;55.154;14.722;2024-02-04T05:40:55;100553.78;;;5.15
80962;BMP280;70424;55.154;14.722;2024-02-04T05:43:20;100525.53;;;4.93
80962;BMP280;70424;55.154;14.722;2024-02-04T05:45:46;100527.84;;;4.97
80962;BMP280;70424;55.154;14.722;2024-02-04T05:48:11;100557.38;;;5.18
80962;BMP280;70424;55.154;14.722;2024-02-04T05:50:37;100522.66;;;4.91
80962;BMP280;70424;55.154;14.722;2024-02-04T05:53:02;100521.16;;;4.98
80962;BMP280;70424;55.154;14.722;2024-02-04T05:55:28;100522.75;;;5.01
80962;BMP280;70424;55.154;14.722;2024-02-04T05:57:54;100539.34;;;5.13
80962;BMP280;70424;55.154;14.722;2024-02-04T06:00:19;100553.97;;;5.17
80962;BMP280;70424;55.154;14.722;2024-02-04T06:02:45;100535.75;;;5.10
80962;BMP280;70424;55.154;14.722;2024-02-04T06:05:16;100539.19;;;5.11
80962;BMP280;70424;55.154;14.722;2024-02-04T06:07:42;100544.19;;;5.14
80962;BMP280;70424;55.154;14.722;2024-02-04T06:10:09;100505.69;;;4.91
80962;BMP280;70424;55.154;14.722;2024-02-04T06:12:34;100502.00;;;5.03
80962;BMP280;70424;55.154;14.722;2024-02-04T06:15:00;100496.06;;;4.97
80962;BMP280;70424;55.154;14.722;2024-02-04T06:17:25;100504.00;;;5.03
80962;BMP280;70424;55.154;14.722;2024-02-04T06:19:51;100509.03;;;5.06
80962;BMP280;70424;55.154;14.722;2024-02-04T06:22:16;100492.09;;;4.98
80962;BMP280;70424;55.154;14.722;2024-02-04T06:24:41;100509.53;;;5.13
80962;BMP280;70424;55.154;14.722;2024-02-04T06:27:11;100485.94;;;4.98
80962;BMP280;70424;55.154;14.722;2024-02-04T06:29:36;100516.38;;;5.14
80962;BMP280;70424;55.154;14.722;2024-02-04T06:32:02;100507.00;;;5.15
80962;BMP280;70424;55.154;14.722;2024-02-04T06:34:28;100496.41;;;5.09
80962;BMP280;70424;55.154;14.722;2024-02-04T06:36:53;100488.47;;;5.03
80962;BMP280;70424;55.154;14.722;2024-02-04T06:39:19;100492.97;;;5.01
80962;BMP280;70424;55.154;14.722;2024-02-04T06:41:44;100496.59;;;5.03
80962;BMP280;70424;55.154;14.722;2024-02-04T06:44:16;100489.03;;;5.02
80962;BMP280;70424;55.154;14.722;2024-02-04T06:46:41;100502.34;;;5.07
80962;BMP280;70424;55.154;14.722;2024-02-04T06:49:07;100475.66;;;4.96
80962;BMP280;70424;55.154;14.722;2024-02-04T06:51:32;100455.81;;;4.94
80962;BMP280;70424;55.154;14.722;2024-02-04T06:53:58;100472.03;;;5.01
80962;BMP280;70424;55.154;14.722;2024-02-04T06:56:23;100466.59;;;5.09
80962;BMP280;70424;55.154;14.722;2024-02-04T06:58:48;100458.66;;;5.03
80962;BMP280;70424;55.154;14.722;2024-02-04T07:01:14;100455.97;;;5.03
80962;BMP280;70424;55.154;14.722;2024-02-04T07:03:40;100454.84;;;5.06
80962;BMP280;70424;55.154;14.722;2024-02-04T07:06:06;100466.59;;;5.09
80962;BMP280;70424;55.154;14.722;2024-02-04T07:08:31;100462.97;;;5.06
80962;BMP280;70424;55.154;14.722;2024-02-04T07:10:56;100479.72;;;5.13
80962;BMP280;70424;55.154;14.722;2024-02-04T07:13:22;100438.28;;;4.95
80962;BMP280;70424;55.154;14.722;2024-02-04T07:15:47;100484.41;;;5.20
80962;BMP280;70424;55.154;14.722;2024-02-04T07:18:13;100478.47;;;5.14
80962;BMP280;70424;55.154;14.722;2024-02-04T07:20:38;100471.25;;;5.16
80962;BMP280;70424;55.154;14.722;2024-02-04T07:23:05;100467.25;;;5.17
80962;BMP280;70424;55.154;14.722;2024-02-04T07:25:30;100473.19;;;5.23
80962;BMP280;70424;55.154;14.722;2024-02-04T07:27:56;100471.91;;;5.24
80962;BMP280;70424;55.154;14.722;2024-02-04T07:30:22;100464.91;;;5.14
80962;BMP280;70424;55.154;14.722;2024-02-04T07:32:48;100465.97;;;5.18
80962;BMP280;70424;55.154;14.722;2024-02-04T07:35:16;100479.69;;;5.28
80962;BMP280;70424;55.154;14.722;2024-02-04T07:37:42;100448.88;;;5.08
80962;BMP280;70424;55.154;14.722;2024-02-04T07:40:07;100465.78;;;5.24
80962;BMP280;70424;55.154;14.722;2024-02-04T07:42:33;100466.34;;;5.22
80962;BMP280;70424;55.154;14.722;2024-02-04T07:44:58;100458.22;;;5.22
80962;BMP280;70424;55.154;14.722;2024-02-04T07:47:24;100458.38;;;5.24
80962;BMP280;70424;55.154;14.722;2024-02-04T07:49:50;100436.19;;;5.18
80962;BMP280;70424;55.154;14.722;2024-02-04T07:52:15;100430.25;;;5.12
80962;BMP280;70424;55.154;14.722;2024-02-04T07:54:40;100451.13;;;5.27
80962;BMP280;70424;55.154;14.722;2024-02-04T07:57:06;100418.56;;;5.10
80962;BMP280;70424;55.154;14.722;2024-02-04T07:59:31;100455.09;;;5.26
80962;BMP280;70424;55.154;14.722;2024-02-04T08:01:57;100434.00;;;5.24
80962;BMP280;70424;55.154;14.722;2024-02-04T08:04:22;100439.16;;;5.30
80962;BMP280;70424;55.154;14.722;2024-02-04T08:06:48;100433.75;;;5.30
80962;BMP280;70424;55.154;14.722;2024-02-04T08:09:13;100438.63;;;5.31
80962;BMP280;70424;55.154;14.722;2024-02-04T08:11:40;100416.84;;;5.22
80962;BMP280;70424;55.154;14.722;2024-02-04T08:14:05;100410.63;;;5.29
80962;BMP280;70424;55.154;14.722;2024-02-04T08:16:31;100406.09;;;5.31
80962;BMP280;70424;55.154;14.722;2024-02-04T08:18:57;100408.81;;;5.31
80962;BMP280;70424;55.154;14.722;2024-02-04T08:21:23;100401.75;;;5.36
80962;BMP280;70424;55.154;14.722;2024-02-04T08:23:48;100382.81;;;5.28
80962;BMP280;70424;55.154;14.722;2024-02-04T08:26:14;100362.69;;;5.14
80962;BMP280;70424;55.154;14.722;2024-02-04T08:28:39;100381.50;;;5.37
80962;BMP280;70424;55.154;14.722;2024-02-04T08:31:05;100393.22;;;5.40
80962;BMP280;70424;55.154;14.722;2024-02-04T08:33:30;100376.63;;;5.35
80962;BMP280;70424;55.154;14.722;2024-02-04T08:35:56;100363.81;;;5.36
80962;BMP280;70424;55.154;14.722;2024-02-04T08:38:21;100390.94;;;5.53
80962;BMP280;70424;55.154;14.722;2024-02-04T08:40:47;100393.31;;;5.49
80962;BMP280;70424;55.154;14.722;2024-02-04T08:43:12;100397.81;;;5.54
80962;BMP280;70424;55.154;14.722;2024-02-04T08:45:37;100373.38;;;5.37
80962;BMP280;70424;55.154;14.722;2024-02-04T08:48:03;100389.00;;;5.46
80962;BMP280;70424;55.154;14.722;2024-02-04T08:50:29;100394.91;;;5.52
80962;BMP280;70424;55.154;14.722;2024-02-04T08:52:55;100395.09;;;5.54
80962;BMP280;70424;55.154;14.722;2024-02-04T08:55:20;100384.00;;;5.60
80962;BMP280;70424;55.154;14.722;2024-02-04T08:57:46;100384.16;;;5.62
80962;BMP280;70424;55.154;14.722;2024-02-04T09:00:14;100359.72;;;5.45
80962;BMP280;70424;55.154;14.722;2024-02-04T09:02:39;100396.59;;;5.65
80962;BMP280;70424;55.154;14.722;2024-02-04T09:05:05;100382.03;;;5.60
80962;BMP280;70424;55.154;14.722;2024-02-04T09:07:31;100373.72;;;5.58
80962;BMP280;70424;55.154;14.722;2024-02-04T09:09:56;100366.31;;;5.59
80962;BMP280;70424;55.154;14.722;2024-02-04T09:12:22;100360.38;;;5.53
80962;BMP280;70424;55.154;14.722;2024-02-04T09:14:47;100368.56;;;5.70
80962;BMP280;70424;55.154;14.722;2024-02-04T09:17:13;100370.00;;;5.71
80962;BMP280;70424;55.154;14.722;2024-02-04T09:19:39;100356.50;;;5.63
80962;BMP280;70424;55.154;14.722;2024-02-04T09:22:05;100355.38;;;5.67
80962;BMP280;70424;55.154;14.722;2024-02-04T09:24:30;100349.03;;;5.72
80962;BMP280;70424;55.154;14.722;2024-02-04T09:26:56;100341.78;;;5.74
80962;BMP280;70424;55.154;14.722;2024-02-04T09:29:21;100370.56;;;5.87
80962;BMP280;70424;55.154;14.722;2024-02-04T09:31:46;100339.28;;;5.69
80962;BMP280;70424;55.154;14.722;2024-02-04T09:34:12;100350.53;;;5.82
80962;BMP280;70424;55.154;14.722;2024-02-04T09:36:37;100355.97;;;5.82
80962;BMP280;70424;55.154;14.722;2024-02-04T09:39:03;100359.16;;;5.88
80962;BMP280;70424;55.154;14.722;2024-02-04T09:41:29;100364.50;;;5.96
80962;BMP280;70424;55.154;14.722;2024-02-04T09:43:54;100372.69;;;6.06
80962;BMP280;70424;55.154;14.722;2024-02-04T09:46:20;100332.66;;;5.97
80962;BMP280;70424;55.154;14.722;2024-02-04T09:48:46;100343.88;;;6.10
80962;BMP280;70424;55.154;14.722;2024-02-04T09:51:13;100342.53;;;6.19
80962;BMP280;70424;55.154;14.722;2024-02-04T09:53:43;100349.44;;;6.30
80962;BMP280;70424;55.154;14.722;2024-02-04T09:56:09;100324.41;;;6.21
80962;BMP280;70424;55.154;14.722;2024-02-04T09:58:36;100347.75;;;6.34
80962;BMP280;70424;55.154;14.722;2024-02-04T10:01:02;100335.94;;;6.39
80962;BMP280;70424;55.154;14.722;2024-02-04T10:03:29;100332.44;;;6.29
80962;BMP280;70424;55.154;14.722;2024-02-04T10:05:55;100335.53;;;6.43
80962;BMP280;70424;55.154;14.722;2024-02-04T10:08:20;100310.31;;;6.33
80962;BMP280;70424;55.154;14.722;2024-02-04T10:10:46;100308.88;;;6.32
80962;BMP280;70424;55.154;14.722;2024-02-04T10:13:12;100314.22;;;6.39
80962;BMP280;70424;55.154;14.722;2024-02-04T10:15:37;100327.53;;;6.45
80962;BMP280;70424;55.154;14.722;2024-02-04T10:18:04;100322.41;;;6.49
80962;BMP280;70424;55.154;14.722;2024-02-04T10:20:30;100306.94;;;6.42
80962;BMP280;70424;55.154;14.722;2024-02-04T10:22:55;100323.44;;;6.53
80962;BMP280;70424;55.154;14.722;2024-02-04T10:25:21;100323.19;;;6.59
80962;BMP280;70424;55.154;14.722;2024-02-04T10:27:46;100301.75;;;6.36
80962;BMP280;70424;55.154;14.722;2024-02-04T10:30:13;100327.91;;;6.59
80962;BMP280;70424;55.154;14.722;2024-02-04T10:32:39;100311.25;;;6.45
80962;BMP280;70424;55.154;14.722;2024-02-04T10:35:05;100293.22;;;6.40
80962;BMP280;70424;55.154;14.722;2024-02-04T10:37:30;100303.88;;;6.55
80962;BMP280;70424;55.154;14.722;2024-02-04T10:39:56;100287.25;;;6.51
80962;BMP280;70424;55.154;14.722;2024-02-04T10:42:26;100295.59;;;6.63
80962;BMP280;70424;55.154;14.722;2024-02-04T10:44:53;100272.81;;;6.48
80962;BMP280;70424;55.154;14.722;2024-02-04T10:47:22;100278.88;;;6.57
80962;BMP280;70424;55.154;14.722;2024-02-04T10:49:52;100266.09;;;6.49
80962;BMP280;70424;55.154;14.722;2024-02-04T10:52:20;100275.28;;;6.54
80962;BMP280;70424;55.154;14.722;2024-02-04T10:54:48;100293.78;;;6.65
80962;BMP280;70424;55.154;14.722;2024-02-04T10:57:19;100256.28;;;6.54
80962;BMP280;70424;55.154;14.722;2024-02-04T10:59:46;100258.44;;;6.56
80962;BMP280;70424;55.154;14.722;2024-02-04T11:02:13;100276.19;;;6.66
80962;BMP280;70424;55.154;14.722;2024-02-04T11:04:41;100258.28;;;6.53
80962;BMP280;70424;55.154;14.722;2024-02-04T11:07:08;100268.19;;;6.68
80962;BMP280;70424;55.154;14.722;2024-02-04T11:09:33;100265.31;;;6.66
80962;BMP280;70424;55.154;14.722;2024-02-04T11:11:59;100265.56;;;6.61
80962;BMP280;70424;55.154;14.722;2024-02-04T11:14:26;100257.00;;;6.64
80962;BMP280;70424;55.154;14.722;2024-02-04T11:20:03;100250.16;;;6.63
80962;BMP280;70424;55.154;14.722;2024-02-04T11:25:39;100243.44;;;6.64
80962;BMP280;70424;55.154;14.722;2024-02-04T11:28:08;100236.56;;;6.63
80962;BMP280;70424;55.154;14.722;2024-02-04T11:30:34;100231.31;;;6.65
80962;BMP280;70424;55.154;14.722;2024-02-04T11:33:02;100228.47;;;6.73
80962;BMP280;70424;55.154;14.722;2024-02-04T11:35:28;100243.78;;;6.78
80962;BMP280;70424;55.154;14.722;2024-02-04T11:37:54;100230.19;;;6.78
80962;BMP280;70424;55.154;14.722;2024-02-04T11:40:20;100227.63;;;6.90
80962;BMP280;70424;55.154;14.722;2024-02-04T11:42:48;100246.09;;;7.01
80962;BMP280;70424;55.154;14.722;2024-02-04T11:45:14;100230.97;;;7.07
80962;BMP280;70424;55.154;14.722;2024-02-04T11:47:40;100231.22;;;7.02
80962;BMP280;70424;55.154;14.722;2024-02-04T11:50:06;100210.91;;;7.03
80962;BMP280;70424;55.154;14.722;2024-02-04T11:52:31;100209.22;;;6.98
80962;BMP280;70424;55.154;14.722;2024-02-04T11:54:57;100239.25;;;7.19
80962;BMP280;70424;55.154;14.722;2024-02-04T11:57:23;100206.38;;;7.05
80962;BMP280;70424;55.154;14.722;2024-02-04T11:59:49;100227.09;;;7.20
80962;BMP280;70424;55.154;14.722;2024-02-04T12:02:16;100221.66;;;7.20
80962;BMP280;70424;55.154;14.722;2024-02-04T12:04:43;100208.91;;;7.13
80962;BMP280;70424;55.154;14.722;2024-02-04T12:07:10;100209.50;;;7.21
80962;BMP280;70424;55.154;14.722;2024-02-04T12:09:35;100211.63;;;7.23
80962;BMP280;70424;55.154;14.722;2024-02-04T12:12:02;100200.63;;;7.21
80962;BMP280;70424;55.154;14.722;2024-02-04T12:14:28;100197.63;;;7.26
80962;BMP280;70424;55.154;14.722;2024-02-04T12:16:55;100219.94;;;7.34
80962;BMP280;70424;55.154;14.722;2024-02-04T12:19:22;100210.78;;;7.39
80962;BMP280;70424;55.154;14.722;2024-02-04T12:21:47;100179.47;;;7.19
80962;BMP280;70424;55.154;14.722;2024-02-04T12:24:14;100207.94;;;7.37
80962;BMP280;70424;55.154;14.722;2024-02-04T12:26:39;100182.59;;;7.25
80962;BMP280;70424;55.154;14.722;2024-02-04T12:29:06;100203.78;;;7.36
80962;BMP280;70424;55.154;14.722;2024-02-04T12:31:31;100185.31;;;7.25
80962;BMP280;70424;55.154;14.722;2024-02-04T12:33:59;100192.63;;;7.32
80962;BMP280;70424;55.154;14.722;2024-02-04T12:36:27;100192.63;;;7.32
80962;BMP280;70424;55.154;14.722;2024-02-04T12:38:53;100193.03;;;7.29
80962;BMP280;70424;55.154;14.722;2024-02-04T12:41:20;100176.72;;;7.29
80962;BMP280;70424;55.154;14.722;2024-02-04T12:43:54;100182.03;;;7.27
80962;BMP280;70424;55.154;14.722;2024-02-04T12:46:20;100168.47;;;7.17
80962;BMP280;70424;55.154;14.722;2024-02-04T12:48:51;100159.75;;;7.19
80962;BMP280;70424;55.154;14.722;2024-02-04T12:51:27;100160.44;;;7.19
80962;BMP280;70424;55.154;14.722;2024-02-04T12:54:06;100175.31;;;7.18
80962;BMP280;70424;55.154;14.722;2024-02-04T12:59:09;100164.16;;;7.14
80962;BMP280;70424;55.154;14.722;2024-02-04T13:01:37;100166.00;;;7.11
80962;BMP280;70424;55.154;14.722;2024-02-04T13:04:02;100162.88;;;7.05
80962;BMP280;70424;55.154;14.722;2024-02-04T13:06:28;100134.28;;;6.95
80962;BMP280;70424;55.154;14.722;2024-02-04T13:09:01;100168.03;;;7.11
80962;BMP280;70424;55.154;14.722;2024-02-04T13:11:27;100151.31;;;7.05
80962;BMP280;70424;55.154;14.722;2024-02-04T13:13:52;100159.59;;;7.07
80962;BMP280;70424;55.154;14.722;2024-02-04T13:16:19;100157.16;;;7.01
80962;BMP280;70424;55.154;14.722;2024-02-04T13:18:51;100169.44;;;7.02
80962;BMP280;70424;55.154;14.722;2024-02-04T13:21:17;100170.00;;;7.01
80962;BMP280;70424;55.154;14.722;2024-02-04T13:23:45;100150.44;;;7.02
80962;BMP280;70424;55.154;14.722;2024-02-04T13:26:10;100148.00;;;6.97
80962;BMP280;70424;55.154;14.722;2024-02-04T13:28:35;100150.28;;;6.81
80962;BMP280;70424;55.154;14.722;2024-02-04T13:31:02;100130.69;;;6.73
80962;BMP280;70424;55.154;14.722;2024-02-04T13:33:27;100153.41;;;6.87
80962;BMP280;70424;55.154;14.722;2024-02-04T13:35:52;100153.41;;;6.77
80962;BMP280;70424;55.154;14.722;2024-02-04T13:38:18;100163.88;;;6.91
80962;BMP280;70424;55.154;14.722;2024-02-04T13:40:44;100168.28;;;6.86
80962;BMP280;70424;55.154;14.722;2024-02-04T13:43:09;100158.16;;;6.87
80962;BMP280;70424;55.154;14.722;2024-02-04T13:45:34;100159.28;;;6.74
80962;BMP280;70424;55.154;14.722;2024-02-04T13:48:00;100160.84;;;6.77
80962;BMP280;70424;55.154;14.722;2024-02-04T13:50:25;100157.13;;;6.72
80962;BMP280;70424;55.154;14.722;2024-02-04T13:52:50;100141.00;;;6.65
80962;BMP280;70424;55.154;14.722;2024-02-04T13:55:16;100135.84;;;6.59
80962;BMP280;70424;55.154;14.722;2024-02-04T13:57:41;100151.13;;;6.74
80962;BMP280;70424;55.154;14.722;2024-02-04T14:00:07;100157.00;;;6.70